Time;durP1;ratioP1;P1;durP2;ratioP2;P2;SDS_P1;SDS_P2;PMS_P1;PMS_P2;Temp;Humidity;BMP_temperature;BMP_pressure;BME280_temperature;BME280_humidity;BME280_pressure;Samples;Min_cycle;Max_cycle;Signal;HPM_P1;HPM_P2
2022/01/08 00:09:06;;;;;;;8.52;6.05;;;;;;;21.11;nan;100655.19;20407758;28;99065;-61
2022/01/08 00:19:07;;;;;;;9.73;5.47;;;;;;;21.06;nan;100650.25;20400606;28;97919;-60
2022/01/08 00:29:08;;;;;;;7.82;5.72;;;;;;;21.03;nan;100628.56;20436343;27;102641;-60
2022/01/08 00:39:08;;;;;;;8.70;5.82;;;;;;;20.97;nan;100629.88;20408495;28;101618;-61
2022/01/08 00:49:15;;;;;;;8.90;5.80;;;;;;;20.94;nan;100614.31;20402341;28;98006;-60
2022/01/08 00:59:15;;;;;;;8.77;5.80;;;;;;;20.91;nan;100599.56;20409029;28;99284;-60
2022/01/08 01:09:17;;;;;;;9.65;5.55;;;;;;;20.86;nan;100593.81;20414114;28;100313;-60
2022/01/08 01:19:19;;;;;;;8.00;5.47;;;;;;;20.84;nan;100581.72;20407135;28;99532;-61
2022/01/08 01:49:47;;;;;;;8.80;5.63;;;;;;;20.71;nan;100543.09;20441724;28;100144;-61
2022/01/08 01:59:48;;;;;;;8.20;5.57;;;;;;;20.68;nan;100527.53;20417814;28;98130;-61
2022/01/08 02:09:48;;;;;;;6.82;4.80;;;;;;;20.64;nan;100505.88;20417110;28;101881;-61
2022/01/08 02:19:52;;;;;;;7.03;4.88;;;;;;;20.61;nan;100506.06;20410820;28;100703;-60
2022/01/08 02:29:54;;;;;;;7.40;5.25;;;;;;;20.59;nan;100517.66;20414329;28;98693;-61
2022/01/08 02:39:56;;;;;;;7.68;5.18;;;;;;;20.54;nan;100502.22;20414476;28;100066;-60
2022/01/08 02:49:58;;;;;;;7.90;5.30;;;;;;;20.55;nan;100505.69;20414647;28;99002;-60
2022/01/08 03:00:04;;;;;;;7.93;5.57;;;;;;;20.50;nan;100506.03;20419143;28;98546;-60
2022/01/08 03:10:11;;;;;;;7.13;4.97;;;;;;;20.48;nan;100492.13;20415556;28;100857;-60
2022/01/08 03:20:15;;;;;;;7.05;5.03;;;;;;;20.45;nan;100497.63;20445689;28;100043;-60
2022/01/08 03:30:16;;;;;;;6.38;4.82;;;;;;;20.40;nan;100495.34;20418531;28;98552;-60
2022/01/08 03:40:16;;;;;;;7.67;5.13;;;;;;;20.41;nan;100483.88;20413567;27;100236;-61
2022/01/08 03:50:18;;;;;;;7.53;4.93;;;;;;;20.40;nan;100505.84;20409184;28;100659;-60
2022/01/08 04:00:20;;;;;;;7.03;5.15;;;;;;;20.38;nan;100510.38;20410114;28;97578;-61
2022/01/08 04:10:23;;;;;;;7.17;4.73;;;;;;;20.37;nan;100505.25;20410946;28;102185;-61
2022/01/08 04:20:24;;;;;;;8.32;5.07;;;;;;;20.35;nan;100491.34;20405678;28;98609;-60
2022/01/08 04:30:24;;;;;;;6.93;4.72;;;;;;;20.34;nan;100473.91;20407148;28;98378;-61
2022/01/08 04:40:25;;;;;;;7.40;5.07;;;;;;;20.34;nan;100458.13;20443574;28;98991;-60
2022/01/08 04:50:28;;;;;;;7.28;5.07;;;;;;;20.32;nan;100452.97;20407786;28;97685;-60
2022/01/08 05:00:28;;;;;;;6.97;5.03;;;;;;;20.31;nan;100441.63;20401830;28;98695;-61
2022/01/08 05:10:33;;;;;;;7.47;5.05;;;;;;;20.32;nan;100442.44;20403098;28;98497;-61
2022/01/08 05:20:37;;;;;;;7.07;4.95;;;;;;;20.36;nan;100433.41;20401200;28;97176;-61
2022/01/08 05:30:38;;;;;;;8.48;5.25;;;;;;;20.46;nan;100444.09;20413729;28;100626;-60
2022/01/08 05:40:38;;;;;;;15.20;4.53;;;;;;;20.55;nan;100445.19;20412000;28;98739;-61
2022/01/08 05:50:40;;;;;;;7.30;4.50;;;;;;;20.63;nan;100440.22;20415219;28;99986;-61
2022/01/08 06:00:41;;;;;;;6.78;4.50;;;;;;;20.71;nan;100452.78;20419633;28;101805;-61
2022/01/08 06:10:41;;;;;;;6.63;4.60;;;;;;;20.74;nan;100463.97;20422812;28;101243;-61
2022/01/08 06:20:42;;;;;;;6.53;4.38;;;;;;;20.81;nan;100481.91;20425983;28;101274;-61
2022/01/08 06:30:42;;;;;;;7.43;4.82;;;;;;;20.86;nan;100487.69;20412592;28;97872;-61
2022/01/08 06:40:43;;;;;;;11.35;5.30;;;;;;;20.89;nan;100477.75;20401437;28;99672;-59
2022/01/08 06:50:43;;;;;;;9.30;5.25;;;;;;;20.93;nan;100475.75;20418065;28;102131;-61
2022/01/08 07:00:45;;;;;;;8.32;5.20;;;;;;;21.01;nan;100468.09;20429498;28;102562;-61
2022/01/08 07:10:46;;;;;;;7.03;4.72;;;;;;;21.15;nan;100464.41;20412531;28;99065;-62
2022/01/08 07:20:46;;;;;;;9.10;4.95;;;;;;;21.23;nan;100458.59;20423968;28;102850;-61
2022/01/08 07:30:47;;;;;;;7.88;4.40;;;;;;;21.34;nan;100440.16;20451834;28;97615;-60
2022/01/08 07:40:51;;;;;;;6.88;4.60;;;;;;;21.46;nan;100440.16;20406673;28;102548;-60
2022/01/08 07:50:52;;;;;;;9.63;5.85;;;;;;;21.57;nan;100442.84;20429249;28;99078;-61
2022/01/08 08:00:53;;;;;;;17.75;8.80;;;;;;;21.37;nan;100420.63;20440758;28;98331;-60
2022/01/08 08:10:54;;;;;;;11.90;7.43;;;;;;;21.57;nan;100427.03;20406446;28;99804;-60
2022/01/08 08:20:56;;;;;;;18.27;7.90;;;;;;;21.59;nan;100402.22;20401595;28;102378;-60
2022/01/08 08:30:56;;;;;;;9.77;6.80;;;;;;;21.72;nan;100395.97;20417152;28;99501;-60
2022/01/08 08:40:57;;;;;;;14.77;6.78;;;;;;;21.81;nan;100391.78;20417299;28;99471;-61
2022/01/08 08:50:58;;;;;;;13.63;6.57;;;;;;;21.85;nan;100380.00;20413452;28;97781;-60
2022/01/08 09:00:58;;;;;;;12.40;6.47;;;;;;;21.88;nan;100398.22;20447375;28;101755;-60
2022/01/08 09:10:59;;;;;;;12.43;5.75;;;;;;;21.87;nan;100386.00;20456359;28;98871;-60
2022/01/08 09:21:00;;;;;;;8.60;5.93;;;;;;;21.82;nan;100365.28;20418320;28;98054;-60
2022/01/08 09:31:03;;;;;;;10.35;6.10;;;;;;;21.83;nan;100356.41;20420246;28;98825;-60
2022/01/08 09:41:03;;;;;;;15.10;5.53;;;;;;;21.83;nan;100348.50;20412910;28;101646;-59
2022/01/08 09:51:04;;;;;;;8.07;5.57;;;;;;;21.82;nan;100332.81;20425525;28;101787;-60
2022/01/08 10:01:28;;;;;;;8.48;5.13;;;;;;;21.75;nan;100333.31;20412735;28;102175;-60
2022/01/08 10:11:31;;;;;;;13.10;6.82;;;;;;;21.31;nan;100316.59;20424293;28;98840;-61
2022/01/08 10:21:36;;;;;;;11.40;5.90;;;;;;;21.38;nan;100312.50;20412120;28;103145;-61
2022/01/08 10:31:43;;;;;;;10.80;5.65;;;;;;;21.48;nan;100290.72;20407209;28;98145;-59
2022/01/08 10:41:46;;;;;;;13.60;5.43;;;;;;;21.51;nan;100283.41;20406951;28;102086;-61
2022/01/08 10:51:50;;;;;;;9.80;5.03;;;;;;;21.55;nan;100295.38;20423002;28;101482;-61
2022/01/08 11:01:52;;;;;;;10.52;5.63;;;;;;;21.42;nan;100299.94;20403280;28;99428;-62
2022/01/08 11:11:57;;;;;;;14.80;5.90;;;;;;;21.59;nan;100298.63;20399870;28;98051;-61
2022/01/08 11:21:58;;;;;;;12.18;6.30;;;;;;;21.71;nan;100286.25;20404618;28;99903;-61
2022/01/08 11:32:02;;;;;;;10.40;5.82;;;;;;;21.84;nan;100281.66;20391930;28;99695;-61
2022/01/08 11:42:03;;;;;;;9.00;4.97;;;;;;;21.87;nan;100288.47;20418421;28;100793;-61
2022/01/08 11:52:21;;;;;;;8.02;5.00;;;;;;;21.81;nan;100284.53;20434389;28;100243;-61
2022/01/08 12:02:33;;;;;;;8.40;4.13;;;;;;;;;;20443274;28;101331;-60
2022/01/08 12:12:46;;;;;;;8.20;4.23;;;;;;;21.76;nan;100249.81;20401764;28;100732;-61
2022/01/08 12:22:47;;;;;;;6.25;4.32;;;;;;;21.78;nan;100242.63;20420133;28;103706;-60
2022/01/08 12:32:51;;;;;;;6.85;4.18;;;;;;;21.81;nan;100217.81;20405545;28;102118;-61
2022/01/08 12:42:52;;;;;;;7.13;3.95;;;;;;;21.78;nan;100218.91;20409922;28;102711;-60
2022/01/08 12:53:08;;;;;;;10.18;4.35;;;;;;;21.74;nan;100201.69;20417642;28;99058;-61
2022/01/08 13:03:12;;;;;;;11.48;3.72;;;;;;;21.72;nan;100190.44;20403337;28;98554;-61
2022/01/08 13:13:13;;;;;;;9.52;3.95;;;;;;;21.71;nan;100188.75;20414401;28;99863;-60
2022/01/08 13:23:14;;;;;;;6.70;3.85;;;;;;;;;;20379362;28;101075;-61
2022/01/08 13:33:22;;;;;;;7.72;3.78;;;;;;;21.83;nan;100177.19;20416234;28;101598;-61
2022/01/08 13:43:24;;;;;;;6.60;3.42;;;;;;;21.92;nan;100162.38;20429878;28;100953;-62
2022/01/08 13:53:24;;;;;;;4.70;3.15;;;;;;;21.96;nan;100163.81;20439111;28;102172;-60
2022/01/08 14:03:39;;;;;;;5.47;3.20;;;;;;;21.98;nan;100158.41;20404335;27;101784;-60
2022/01/08 14:13:47;;;;;;;8.73;3.20;;;;;;;21.97;nan;100159.38;20433188;28;100714;-62
2022/01/08 14:23:49;;;;;;;7.13;3.42;;;;;;;21.94;nan;100143.84;20431252;28;99668;-62
2022/01/08 14:34:14;;;;;;;5.13;3.43;;;;;;;21.95;nan;100134.94;20424643;28;107030;-61
2022/01/08 14:44:23;;;;;;;6.55;3.30;;;;;;;21.88;nan;100134.63;20402639;28;101009;-61
2022/01/08 14:54:32;;;;;;;10.32;3.45;;;;;;;21.79;nan;100135.38;20412634;28;101596;-61
2022/01/08 15:04:33;;;;;;;6.82;3.55;;;;;;;21.69;nan;100141.44;20405525;28;102537;-60
2022/01/08 15:14:35;;;;;;;6.35;3.10;;;;;;;21.62;nan;100124.47;20408379;28;102702;-62
2022/01/08 15:24:37;;;;;;;8.97;2.73;;;;;;;21.57;nan;100114.31;20409088;28;101468;-61
2022/01/08 15:34:37;;;;;;;8.02;3.08;;;;;;;21.55;nan;100112.75;20405678;28;97535;-60
2022/01/08 15:44:39;;;;;;;10.07;3.42;;;;;;;21.52;nan;100094.56;20404499;28;99047;-60
2022/01/08 15:54:40;;;;;;;6.68;3.20;;;;;;;21.56;nan;100093.34;20409281;28;101552;-60
2022/01/08 16:04:41;;;;;;;5.82;3.13;;;;;;;21.59;nan;100082.56;20406733;28;102358;-62
2022/01/08 16:14:41;;;;;;;8.73;3.25;;;;;;;21.58;nan;100084.38;20432727;28;103027;-62
2022/01/08 16:24:42;;;;;;;5.25;3.35;;;;;;;21.56;nan;100065.22;20421789;28;100833;-62
2022/01/08 16:34:43;;;;;;;4.78;3.33;;;;;;;21.56;nan;100061.72;20393867;28;99377;-61
2022/01/08 16:44:44;;;;;;;5.13;3.10;;;;;;;21.59;nan;100072.88;20398817;28;103860;-62
2022/01/08 16:54:45;;;;;;;5.18;3.25;;;;;;;21.67;nan;100093.31;20434830;28;100219;-62
2022/01/08 17:04:45;;;;;;;5.45;3.63;;;;;;;21.76;nan;100096.97;20395022;27;98508;-62
2022/01/08 17:14:47;;;;;;;9.93;3.42;;;;;;;21.77;nan;100095.19;20388792;28;98777;-61
2022/01/08 17:24:48;;;;;;;5.53;3.73;;;;;;;21.84;nan;100102.41;20376736;28;98578;-60
2022/01/08 17:34:49;;;;;;;5.97;3.58;;;;;;;21.90;nan;100108.97;20394977;28;101454;-61
2022/01/08 17:44:49;;;;;;;6.30;3.80;;;;;;;21.95;nan;100103.28;20408784;28;101869;-61
2022/01/08 17:54:50;;;;;;;6.90;3.73;;;;;;;22.01;nan;100106.25;20416907;28;100929;-62
2022/01/08 18:04:51;;;;;;;6.32;3.85;;;;;;;22.02;nan;100096.53;20450284;28;99430;-62
2022/01/08 18:14:52;;;;;;;6.25;3.88;;;;;;;22.04;nan;100095.44;20424102;28;101731;-62
2022/01/08 18:24:53;;;;;;;7.25;3.80;;;;;;;22.09;nan;100068.69;20415936;28;98487;-61
2022/01/08 18:34:54;;;;;;;7.30;4.00;;;;;;;22.08;nan;100061.72;20391059;28;99846;-61
2022/01/08 18:44:56;;;;;;;6.05;3.70;;;;;;;22.13;nan;100048.16;20422975;28;100893;-62
2022/01/08 18:54:57;;;;;;;8.83;4.70;;;;;;;22.16;nan;100037.34;20425142;28;98715;-62
2022/01/08 19:04:58;;;;;;;13.43;5.47;;;;;;;22.27;nan;100028.50;20383376;28;105479;-62
2022/01/08 19:15:02;;;;;;;19.63;5.68;;;;;;;22.18;nan;100015.16;20417657;28;99577;-61
2022/01/08 19:25:08;;;;;;;10.98;5.53;;;;;;;22.26;nan;100008.38;20385762;28;101694;-62
2022/01/08 19:35:09;;;;;;;16.50;5.72;;;;;;;22.33;nan;100004.22;20385303;28;99789;-62
2022/01/08 19:45:11;;;;;;;14.23;5.82;;;;;;;22.35;nan;99982.00;20384498;28;101288;-60
2022/01/08 19:55:12;;;;;;;13.50;5.53;;;;;;;22.32;nan;99974.34;20382410;28;101663;-62
2022/01/08 20:05:13;;;;;;;17.63;6.03;;;;;;;22.25;nan;99970.59;20385473;28;102479;-60
2022/01/08 20:15:14;;;;;;;10.82;5.38;;;;;;;22.21;nan;99967.41;20414359;28;101901;-59
2022/01/08 20:25:15;;;;;;;10.60;4.93;;;;;;;22.17;nan;99954.63;20389677;28;100276;-61
2022/01/08 20:35:18;;;;;;;11.10;5.40;;;;;;;22.03;nan;99947.94;20405857;28;100627;-61
2022/01/08 20:45:19;;;;;;;12.80;6.00;;;;;;;21.80;nan;99940.25;20389307;28;101369;-60
2022/01/08 20:55:21;;;;;;;12.75;6.55;;;;;;;21.75;nan;99932.75;20403545;28;102387;-61
2022/01/08 21:05:22;;;;;;;11.53;6.23;;;;;;;21.64;nan;99922.31;20422972;28;97659;-60
2022/01/08 21:15:24;;;;;;;13.07;6.47;;;;;;;21.58;nan;99923.66;20392234;28;99446;-60
2022/01/08 21:25:24;;;;;;;10.35;5.85;;;;;;;21.54;nan;99901.13;20487136;28;98638;-60
2022/01/08 21:35:30;;;;;;;13.02;6.47;;;;;;;21.46;nan;99895.72;20427043;28;102322;-60
2022/01/08 21:45:37;;;;;;;12.00;6.22;;;;;;;21.41;nan;99875.03;20433557;28;98430;-61
2022/01/08 21:55:39;;;;;;;11.30;6.47;;;;;;;21.33;nan;99856.44;20399404;28;99704;-61
2022/01/08 22:05:41;;;;;;;11.50;6.97;;;;;;;21.27;nan;99849.06;20409500;28;102502;-60
2022/01/08 22:15:42;;;;;;;12.40;6.78;;;;;;;21.22;nan;99828.38;20400229;28;102582;-60
2022/01/08 22:25:42;;;;;;;12.05;6.63;;;;;;;21.16;nan;99823.66;20400582;28;100749;-61
2022/01/08 22:35:43;;;;;;;11.02;6.70;;;;;;;21.12;nan;99814.38;20428415;28;98817;-60
2022/01/08 22:45:44;;;;;;;11.05;6.70;;;;;;;21.04;nan;99807.13;20413585;28;100367;-61
2022/01/08 22:55:47;;;;;;;11.43;6.60;;;;;;;21.01;nan;99796.88;20415132;28;99014;-60
2022/01/08 23:05:55;;;;;;;11.67;6.87;;;;;;;21.00;nan;99786.47;20416119;28;98973;-60
2022/01/08 23:15:58;;;;;;;11.30;6.88;;;;;;;20.93;nan;99770.38;20417533;28;103523;-60
2022/01/08 23:25:58;;;;;;;11.18;6.60;;;;;;;20.88;nan;99746.25;20412955;28;98558;-61
2022/01/08 23:36:00;;;;;;;10.40;6.55;;;;;;;20.90;nan;99728.53;20436464;28;101513;-61
2022/01/08 23:46:02;;;;;;;12.10;6.72;;;;;;;20.83;nan;99722.13;20464396;28;101564;-61
2022/01/08 23:56:03;;;;;;;9.35;5.88;;;;;;;20.78;nan;99712.81;20428563;28;97785;-61
